Time;durP1;ratioP1;P1;durP2;ratioP2;P2;SDS_P1;SDS_P2;PMS_P1;PMS_P2;Temp;Humidity;BMP_temperature;BMP_pressure;BME280_temperature;BME280_humidity;BME280_pressure;Samples;Min_cycle;Max_cycle;Signal;HPM_P1;HPM_P2
2023/07/03 00:02:08;;;;;;;8.77;7.05;;;15.30;99.90;;;;;;5030703;28;20448;-82
2023/07/03 00:04:35;;;;;;;9.98;6.53;;;15.30;99.90;;;;;;5030714;28;20076;-83
2023/07/03 00:07:02;;;;;;;7.15;6.28;;;15.20;99.90;;;;;;5031852;28;20108;-83
2023/07/03 00:09:28;;;;;;;7.43;6.63;;;15.30;99.90;;;;;;5032054;28;20471;-82
2023/07/03 00:11:54;;;;;;;8.25;6.55;;;15.30;99.90;;;;;;5030608;28;20061;-83
2023/07/03 00:14:19;;;;;;;7.32;6.68;;;15.30;99.90;;;;;;5030557;28;20108;-83
2023/07/03 00:16:45;;;;;;;8.60;6.38;;;15.30;99.90;;;;;;5030555;28;20030;-83
2023/07/03 00:19:13;;;;;;;10.05;6.28;;;15.30;99.90;;;;;;5030523;28;20025;-83
2023/07/03 00:21:43;;;;;;;9.55;6.18;;;15.20;99.90;;;;;;5030459;28;20053;-82
2023/07/03 00:24:10;;;;;;;7.68;6.88;;;15.10;99.90;;;;;;5031640;28;20394;-83
2023/07/03 00:26:36;;;;;;;8.82;6.70;;;15.10;99.90;;;;;;5031468;28;20112;-83
2023/07/03 00:29:02;;;;;;;7.13;6.00;;;15.10;99.90;;;;;;5031653;28;20155;-82
2023/07/03 00:31:27;;;;;;;7.63;6.28;;;15.10;99.90;;;;;;5030396;28;20017;-82
2023/07/03 00:33:53;;;;;;;7.72;6.47;;;15.10;99.90;;;;;;5031603;28;20024;-82
2023/07/03 00:36:19;;;;;;;8.00;6.50;;;15.20;99.90;;;;;;5042397;28;20470;-83
2023/07/03 00:38:44;;;;;;;5.90;5.30;;;15.10;99.90;;;;;;5050217;28;20452;-83
2023/07/03 00:41:10;;;;;;;8.18;5.85;;;15.10;99.90;;;;;;5051146;28;20060;-82
2023/07/03 00:43:40;;;;;;;6.50;5.35;;;15.10;99.90;;;;;;5051533;28;20039;-83
2023/07/03 00:46:11;;;;;;;8.00;5.13;;;15.10;99.90;;;;;;5049993;28;20013;-82
2023/07/03 00:48:39;;;;;;;5.80;5.07;;;15.10;99.90;;;;;;5050071;28;20127;-83
2023/07/03 00:51:05;;;;;;;5.88;5.30;;;15.10;99.90;;;;;;5051317;28;20025;-82
2023/07/03 00:53:31;;;;;;;5.18;4.78;;;15.10;99.90;;;;;;5050107;28;20050;-83
2023/07/03 00:55:57;;;;;;;9.30;6.30;;;15.10;99.90;;;;;;5050040;28;20025;-83
2023/07/03 00:58:22;;;;;;;6.32;5.75;;;15.10;99.90;;;;;;5049738;28;20024;-84
2023/07/03 01:00:58;;;;;;;7.35;6.65;;;15.10;99.90;;;;;;5048672;28;20021;-83
2023/07/03 01:03:35;;;;;;;6.85;6.25;;;15.10;99.90;;;;;;5049664;28;20490;-83
2023/07/03 01:06:05;;;;;;;7.45;5.95;;;15.10;99.90;;;;;;5049751;28;20090;-83
2023/07/03 01:08:31;;;;;;;7.97;6.40;;;15.10;99.90;;;;;;5049497;28;20029;-83
2023/07/03 01:10:57;;;;;;;10.68;6.43;;;15.10;99.90;;;;;;5051012;28;20029;-83
2023/07/03 01:13:26;;;;;;;9.13;6.70;;;15.10;99.90;;;;;;5049691;28;20434;-83
2023/07/03 01:15:53;;;;;;;12.25;6.32;;;15.20;99.90;;;;;;5049493;28;20024;-82
2023/07/03 01:18:19;;;;;;;9.93;7.25;;;15.10;99.90;;;;;;5050834;28;20100;-82
2023/07/03 01:21:12;;;;;;;9.00;7.85;;;15.20;99.90;;;;;;5050722;28;20025;-82
2023/07/03 01:23:49;;;;;;;;;;;15.10;99.90;;;;;;5050808;28;20048;-82
2023/07/03 01:26:17;;;;;;;11.85;8.05;;;15.20;99.90;;;;;;5050799;28;19912;-82
2023/07/03 01:28:44;;;;;;;7.15;6.10;;;15.20;99.90;;;;;;5050517;28;20037;-82
2023/07/03 01:31:13;;;;;;;9.55;6.82;;;15.20;99.90;;;;;;5049331;28;20025;-82
2023/07/03 01:33:42;;;;;;;8.27;6.68;;;15.20;99.90;;;;;;5050466;28;20025;-82
2023/07/03 01:36:11;;;;;;;8.23;6.70;;;15.20;99.90;;;;;;5050487;28;20482;-83
2023/07/03 01:38:45;;;;;;;9.45;6.53;;;15.20;99.90;;;;;;5049329;28;20021;-82
2023/07/03 01:41:14;;;;;;;12.07;7.88;;;15.20;99.90;;;;;;5050359;28;20135;-82
2023/07/03 01:43:40;;;;;;;9.50;7.32;;;15.20;99.90;;;;;;5049257;28;20017;-82
2023/07/03 01:46:07;;;;;;;11.23;8.07;;;15.30;99.90;;;;;;5049163;28;20028;-82
2023/07/03 01:48:34;;;;;;;9.45;7.57;;;15.20;99.90;;;;;;5049091;28;20058;-83
2023/07/03 01:51:01;;;;;;;10.93;7.82;;;15.30;99.90;;;;;;5048964;28;20409;-82
2023/07/03 01:53:35;;;;;;;7.57;6.78;;;15.20;99.90;;;;;;5049173;28;20021;-82
2023/07/03 01:56:16;;;;;;;9.27;6.82;;;15.20;99.90;;;;;;5044816;28;20030;-83
2023/07/03 01:58:52;;;;;;;7.47;6.10;;;15.20;99.90;;;;;;5029359;28;20439;-83
2023/07/03 02:01:29;;;;;;;8.93;6.15;;;15.20;99.90;;;;;;5029432;28;20017;-83
2023/07/03 02:04:04;;;;;;;7.85;6.18;;;15.10;99.90;;;;;;5029206;28;20116;-83
2023/07/03 02:06:43;;;;;;;7.20;6.53;;;15.00;99.90;;;;;;5030431;28;20022;-82
2023/07/03 02:09:10;;;;;;;10.82;7.22;;;15.00;99.90;;;;;;5029305;28;20041;-84
2023/07/03 02:11:44;;;;;;;7.63;6.32;;;14.90;99.90;;;;;;5029684;28;20483;-84
2023/07/03 02:14:11;;;;;;;12.23;6.93;;;14.90;99.90;;;;;;5032862;28;20022;-83
2023/07/03 02:16:38;;;;;;;11.60;7.10;;;14.90;99.90;;;;;;5033676;28;20417;-83
2023/07/03 02:19:05;;;;;;;7.80;7.00;;;14.90;99.90;;;;;;5033646;28;20022;-84
2023/07/03 02:21:30;;;;;;;14.70;7.45;;;14.90;99.90;;;;;;5033752;28;20021;-84
2023/07/03 02:23:56;;;;;;;9.63;7.50;;;14.90;99.90;;;;;;5033658;28;20047;-83
2023/07/03 02:26:21;;;;;;;9.90;7.50;;;14.90;99.90;;;;;;5032304;28;20048;-83
2023/07/03 02:28:47;;;;;;;10.05;7.90;;;14.90;99.90;;;;;;5032103;28;20495;-83
2023/07/03 02:31:13;;;;;;;10.18;8.45;;;14.90;99.90;;;;;;5032225;28;20064;-84
2023/07/03 02:33:38;;;;;;;11.40;8.45;;;14.90;99.90;;;;;;5032215;28;20415;-84
2023/07/03 02:36:05;;;;;;;8.90;7.60;;;14.90;99.90;;;;;;5032002;28;20028;-83
2023/07/03 02:38:31;;;;;;;13.13;8.43;;;14.90;99.90;;;;;;5032105;28;20447;-83
2023/07/03 02:40:56;;;;;;;11.18;8.65;;;14.80;99.90;;;;;;5033375;28;20076;-83
2023/07/03 02:43:22;;;;;;;13.02;9.23;;;14.90;99.90;;;;;;5033312;28;20026;-83
2023/07/03 02:45:48;;;;;;;11.55;10.00;;;14.90;99.90;;;;;;5032074;28;20028;-82
2023/07/03 02:48:15;;;;;;;11.13;8.75;;;14.90;99.90;;;;;;5032026;28;20124;-83
2023/07/03 02:50:40;;;;;;;9.25;7.88;;;14.90;99.90;;;;;;5031886;28;20113;-83
2023/07/03 02:53:07;;;;;;;10.80;7.70;;;14.90;99.90;;;;;;5033187;28;20121;-84
2023/07/03 02:55:33;;;;;;;10.73;8.60;;;14.90;99.90;;;;;;5031750;28;20044;-83
2023/07/03 02:57:58;;;;;;;7.90;7.15;;;14.90;99.90;;;;;;5033081;28;20030;-83
2023/07/03 03:00:24;;;;;;;9.10;7.20;;;14.90;99.90;;;;;;5031761;28;20057;-83
2023/07/03 03:02:50;;;;;;;8.15;7.30;;;14.90;99.90;;;;;;5031729;28;20074;-83
2023/07/03 03:05:16;;;;;;;10.48;7.45;;;14.90;99.90;;;;;;5033062;28;20029;-83
2023/07/03 03:07:41;;;;;;;7.95;7.13;;;15.00;99.90;;;;;;5032795;28;20034;-83
2023/07/03 03:10:08;;;;;;;11.57;7.68;;;14.90;99.90;;;;;;5031524;28;20026;-83
2023/07/03 03:12:33;;;;;;;9.50;7.75;;;15.00;99.90;;;;;;5032861;28;20029;-83
2023/07/03 03:14:59;;;;;;;9.65;7.95;;;15.00;99.90;;;;;;5031497;28;20471;-83
2023/07/03 03:17:25;;;;;;;10.27;7.75;;;15.00;99.90;;;;;;5031514;28;20469;-83
2023/07/03 03:19:50;;;;;;;11.00;7.40;;;15.00;99.90;;;;;;5031569;28;20475;-83
2023/07/03 03:22:16;;;;;;;8.85;7.82;;;15.00;99.90;;;;;;5031411;28;20022;-84
2023/07/03 03:24:42;;;;;;;10.55;8.02;;;15.00;99.90;;;;;;5030338;28;20029;-83
2023/07/03 03:27:08;;;;;;;8.05;7.10;;;15.00;99.90;;;;;;5031279;28;20106;-82
2023/07/03 03:29:38;;;;;;;9.23;6.72;;;15.00;99.90;;;;;;5032583;28;20030;-82
2023/07/03 03:32:05;;;;;;;8.45;7.03;;;15.00;99.90;;;;;;5032656;28;20109;-83
2023/07/03 03:34:32;;;;;;;10.63;8.30;;;15.00;99.90;;;;;;5031406;28;20104;-82
2023/07/03 03:36:58;;;;;;;11.35;8.98;;;15.00;99.90;;;;;;5032516;28;20022;-81
2023/07/03 03:39:24;;;;;;;9.63;7.43;;;15.00;99.90;;;;;;5031169;28;20423;-82
2023/07/03 03:41:49;;;;;;;8.80;7.40;;;15.10;99.90;;;;;;5030905;28;20076;-82
2023/07/03 03:44:15;;;;;;;8.60;7.50;;;15.10;99.90;;;;;;5031212;28;20025;-82
2023/07/03 03:46:41;;;;;;;9.57;7.57;;;15.10;99.90;;;;;;5030924;28;20547;-82
2023/07/03 03:49:09;;;;;;;11.18;7.85;;;15.10;99.90;;;;;;5031113;28;20537;-82
2023/07/03 03:51:34;;;;;;;9.55;7.60;;;15.20;99.90;;;;;;5031002;28;20083;-82
2023/07/03 03:54:00;;;;;;;10.55;7.63;;;15.20;99.90;;;;;;5030907;28;20425;-82
2023/07/03 03:56:26;;;;;;;11.80;8.38;;;15.20;99.90;;;;;;5030915;28;20022;-82
2023/07/03 03:58:51;;;;;;;12.75;8.50;;;15.30;99.90;;;;;;5031036;28;20479;-82
2023/07/03 04:01:17;;;;;;;11.35;8.48;;;15.40;99.90;;;;;;5031795;28;20026;-82
2023/07/03 04:03:43;;;;;;;9.93;8.65;;;15.60;99.90;;;;;;5030810;28;20021;-82
2023/07/03 04:06:09;;;;;;;11.13;8.40;;;15.60;99.90;;;;;;5030807;28;20471;-83
2023/07/03 04:08:35;;;;;;;12.25;7.90;;;15.70;99.90;;;;;;5030737;28;20037;-82
2023/07/03 04:11:01;;;;;;;10.57;7.75;;;15.90;99.90;;;;;;5030624;28;20028;-84
2023/07/03 04:13:27;;;;;;;8.55;7.68;;;16.10;99.90;;;;;;5030885;28;20009;-83
2023/07/03 04:15:52;;;;;;;8.65;7.75;;;16.30;99.90;;;;;;5030533;28;20432;-83
2023/07/03 04:18:22;;;;;;;11.88;8.60;;;16.50;99.90;;;;;;5030543;28;20151;-83
2023/07/03 04:20:48;;;;;;;10.98;8.55;;;16.60;99.90;;;;;;5030448;28;20032;-83
2023/07/03 04:23:15;;;;;;;14.40;9.52;;;16.80;99.90;;;;;;5030743;28;20025;-84
2023/07/03 04:25:42;;;;;;;10.75;7.80;;;16.90;99.90;;;;;;5031749;28;20017;-83
2023/07/03 04:28:11;;;;;;;10.90;8.30;;;17.10;99.90;;;;;;5030497;28;20042;-81
2023/07/03 04:30:37;;;;;;;13.02;8.45;;;17.40;99.90;;;;;;5030019;28;20512;-82
2023/07/03 04:33:03;;;;;;;11.73;7.82;;;17.50;99.90;;;;;;5030516;28;20057;-80
2023/07/03 04:35:29;;;;;;;9.38;7.53;;;17.70;99.90;;;;;;5030102;28;20390;-82
2023/07/03 04:37:55;;;;;;;10.77;8.27;;;17.90;99.90;;;;;;5032930;28;20050;-81
2023/07/03 04:40:20;;;;;;;9.77;8.63;;;18.00;99.90;;;;;;5041352;28;20048;-81
2023/07/03 04:42:46;;;;;;;15.57;8.32;;;18.10;99.90;;;;;;5039923;28;20533;-82
2023/07/03 04:45:13;;;;;;;11.05;8.40;;;18.20;99.90;;;;;;5035164;28;20025;-80
2023/07/03 04:47:39;;;;;;;13.15;8.13;;;18.30;99.90;;;;;;5030002;28;20041;-80
2023/07/03 04:50:10;;;;;;;12.18;9.10;;;18.40;99.90;;;;;;5030212;28;20062;-81
2023/07/03 04:52:38;;;;;;;13.88;8.85;;;18.50;99.90;;;;;;5038986;28;20025;-82
2023/07/03 04:55:05;;;;;;;11.32;8.50;;;18.50;99.90;;;;;;5038800;28;20394;-81
2023/07/03 04:57:31;;;;;;;10.73;8.95;;;18.60;99.90;;;;;;5042327;28;20499;-83
2023/07/03 04:59:56;;;;;;;11.93;8.85;;;18.70;99.90;;;;;;5041333;28;20057;-82
2023/07/03 05:02:22;;;;;;;11.80;10.05;;;18.70;99.90;;;;;;5049689;28;20017;-84
2023/07/03 05:04:47;;;;;;;14.00;9.23;;;18.70;99.90;;;;;;5039209;28;20021;-83
2023/07/03 05:07:14;;;;;;;15.80;10.30;;;18.80;99.90;;;;;;5045646;28;20072;-82
2023/07/03 05:09:40;;;;;;;9.02;8.13;;;18.80;99.90;;;;;;5038642;28;20537;-84
2023/07/03 05:12:06;;;;;;;10.27;8.13;;;18.90;99.90;;;;;;5040117;28;20097;-83
2023/07/03 05:14:32;;;;;;;15.35;8.70;;;18.90;99.90;;;;;;5040903;28;20067;-83
2023/07/03 05:16:57;;;;;;;10.38;7.88;;;18.90;99.90;;;;;;5035830;28;20079;-84
2023/07/03 05:19:23;;;;;;;9.10;8.10;;;18.80;99.90;;;;;;5038424;28;20140;-83
2023/07/03 05:21:49;;;;;;;12.07;8.40;;;18.90;99.90;;;;;;5038398;28;20032;-83
2023/07/03 05:24:14;;;;;;;9.80;7.95;;;18.90;99.90;;;;;;5035789;28;20017;-83
2023/07/03 05:26:40;;;;;;;13.98;8.73;;;18.90;99.90;;;;;;5037294;28;20493;-83
2023/07/03 05:29:05;;;;;;;14.55;9.70;;;19.00;99.90;;;;;;5027775;28;20064;-83
2023/07/03 05:31:31;;;;;;;16.58;9.70;;;19.00;99.90;;;;;;5035117;28;20025;-83
2023/07/03 05:33:57;;;;;;;10.35;8.98;;;19.00;99.90;;;;;;5046225;28;20491;-83
2023/07/03 05:36:22;;;;;;;14.40;9.85;;;19.10;99.90;;;;;;5049287;28;20454;-83
2023/07/03 05:38:48;;;;;;;14.20;9.13;;;19.10;99.90;;;;;;5049404;28;20104;-84
2023/07/03 05:41:14;;;;;;;13.40;8.90;;;19.20;99.90;;;;;;5048589;28;20053;-83
2023/07/03 05:43:40;;;;;;;12.25;8.38;;;19.30;99.90;;;;;;5050036;28;20029;-84
2023/07/03 05:46:06;;;;;;;11.27;8.18;;;19.40;99.90;;;;;;5049960;28;20382;-84
2023/07/03 05:48:31;;;;;;;14.05;8.52;;;19.50;99.90;;;;;;5050380;28;20069;-84
2023/07/03 05:50:57;;;;;;;12.10;8.88;;;19.50;99.90;;;;;;5049374;28;20017;-84
2023/07/03 05:53:23;;;;;;;14.23;8.45;;;19.60;99.90;;;;;;5048295;28;20056;-83
2023/07/03 05:55:56;;;;;;;22.17;10.88;;;19.70;99.90;;;;;;5048168;28;20025;-84
2023/07/03 05:58:22;;;;;;;15.20;11.00;;;19.80;99.90;;;;;;5048135;28;20104;-83
2023/07/03 06:00:48;;;;;;;16.02;10.63;;;19.90;99.90;;;;;;5047612;28;20028;-83
2023/07/03 06:03:15;;;;;;;17.67;12.00;;;20.00;99.90;;;;;;5048013;28;20100;-83
2023/07/03 06:05:41;;;;;;;16.50;12.10;;;20.00;99.90;;;;;;5047296;28;20431;-83
2023/07/03 06:08:07;;;;;;;14.45;9.07;;;20.10;97.40;;;;;;5048009;28;20033;-83
2023/07/03 06:10:33;;;;;;;13.93;9.40;;;20.20;98.50;;;;;;5049251;28;20024;-84
2023/07/03 06:12:58;;;;;;;16.52;9.10;;;20.20;92.10;;;;;;5049023;28;20086;-85
2023/07/03 06:15:24;;;;;;;9.63;8.35;;;20.40;92.20;;;;;;5050503;28;20033;-85
2023/07/03 06:17:50;;;;;;;9.32;7.97;;;20.40;88.00;;;;;;5048913;28;20021;-84
2023/07/03 06:20:16;;;;;;;11.15;8.27;;;20.40;87.60;;;;;;5048852;28;20074;-85
2023/07/03 06:22:42;;;;;;;16.65;8.02;;;20.50;87.60;;;;;;5048502;28;20025;-85
2023/07/03 06:25:08;;;;;;;8.30;7.20;;;20.50;83.70;;;;;;5049711;28;20137;-85
2023/07/03 06:27:34;;;;;;;14.43;7.95;;;20.50;82.20;;;;;;5047198;28;20041;-85
2023/07/03 06:30:00;;;;;;;10.40;7.13;;;20.70;82.80;;;;;;5048692;28;20089;-84
2023/07/03 06:32:25;;;;;;;10.25;6.47;;;20.80;83.60;;;;;;5048533;28;20431;-85
2023/07/03 06:34:51;;;;;;;9.57;6.32;;;21.00;82.90;;;;;;5049729;28;20025;-85
2023/07/03 06:37:17;;;;;;;9.27;6.45;;;21.00;80.10;;;;;;5049615;28;20104;-85
2023/07/03 06:39:42;;;;;;;8.27;6.35;;;21.20;77.80;;;;;;5048311;28;20492;-84
2023/07/03 06:42:09;;;;;;;9.77;5.97;;;21.20;77.60;;;;;;5048067;28;20048;-84
2023/07/03 06:44:36;;;;;;;8.95;5.78;;;21.30;76.60;;;;;;5049147;28;20177;-84
2023/07/03 06:47:01;;;;;;;8.00;6.38;;;21.50;77.90;;;;;;5044878;28;20416;-84
2023/07/03 06:49:29;;;;;;;7.40;5.43;;;21.60;77.80;;;;;;5028565;28;20018;-84
2023/07/03 06:51:56;;;;;;;7.43;5.60;;;21.80;77.80;;;;;;5028546;28;20066;-85
2023/07/03 06:54:23;;;;;;;7.15;4.95;;;22.00;74.30;;;;;;5028320;28;20428;-86
2023/07/03 06:56:48;;;;;;;7.63;5.60;;;22.10;75.80;;;;;;5029485;28;20022;-82
2023/07/03 06:59:14;;;;;;;8.15;5.65;;;22.20;71.90;;;;;;5031328;28;20026;-83
2023/07/03 07:01:40;;;;;;;5.80;5.20;;;22.00;68.80;;;;;;5031870;28;20028;-83
2023/07/03 07:04:06;;;;;;;11.63;5.00;;;22.20;69.90;;;;;;5029181;28;20420;-83
2023/07/03 07:06:32;;;;;;;6.55;4.85;;;22.30;71.40;;;;;;5032379;28;20100;-84
2023/07/03 07:08:59;;;;;;;6.63;4.75;;;22.40;68.40;;;;;;5032488;28;20116;-83
2023/07/03 07:11:27;;;;;;;6.72;4.78;;;22.50;67.90;;;;;;5031620;28;20018;-83
2023/07/03 07:13:55;;;;;;;7.30;4.95;;;22.60;66.10;;;;;;5036950;28;20104;-81
2023/07/03 07:16:23;;;;;;;11.20;5.32;;;22.70;66.00;;;;;;5051274;28;20390;-83
2023/07/03 07:18:55;;;;;;;8.30;5.20;;;22.60;64.60;;;;;;5052473;28;20037;-83
2023/07/03 07:21:21;;;;;;;6.55;4.90;;;22.70;64.70;;;;;;5052539;28;20025;-83
2023/07/03 07:23:52;;;;;;;7.80;4.57;;;22.70;60.80;;;;;;5051064;28;20089;-83
2023/07/03 07:26:18;;;;;;;6.80;4.75;;;22.80;61.80;;;;;;5051116;28;20021;-81
2023/07/03 07:28:44;;;;;;;7.35;4.50;;;22.80;59.70;;;;;;5051037;28;20085;-81
2023/07/03 07:31:09;;;;;;;5.72;5.03;;;22.70;61.70;;;;;;5052588;28;20030;-81
2023/07/03 07:33:35;;;;;;;6.82;5.05;;;22.80;61.30;;;;;;5037219;28;20032;-81
2023/07/03 07:36:00;;;;;;;9.90;4.43;;;22.90;61.80;;;;;;5032084;28;20028;-83
2023/07/03 07:38:26;;;;;;;9.55;5.07;;;22.90;62.30;;;;;;5030798;28;20053;-81
2023/07/03 07:41:02;;;;;;;7.90;4.68;;;23.00;61.20;;;;;;5030649;28;20047;-81
2023/07/03 07:43:28;;;;;;;6.88;4.60;;;22.90;62.60;;;;;;5032057;28;20029;-82
2023/07/03 07:45:53;;;;;;;5.78;3.83;;;23.00;60.90;;;;;;5031987;28;20125;-83
2023/07/03 07:48:19;;;;;;;7.82;4.82;;;23.10;59.80;;;;;;5030648;28;20029;-83
2023/07/03 07:50:45;;;;;;;8.77;4.35;;;23.20;59.80;;;;;;5031809;28;20104;-81
2023/07/03 07:53:10;;;;;;;4.93;4.53;;;23.30;59.50;;;;;;5031314;28;20457;-84
2023/07/03 07:55:37;;;;;;;7.53;4.60;;;23.30;59.60;;;;;;5030768;28;20116;-83
2023/07/03 07:58:02;;;;;;;8.88;4.57;;;23.40;59.20;;;;;;5030488;28;20432;-80
2023/07/03 08:00:28;;;;;;;6.57;4.13;;;23.40;59.20;;;;;;5031733;28;20030;-84
2023/07/03 08:02:54;;;;;;;8.60;4.40;;;23.50;59.40;;;;;;5030368;28;20501;-81
2023/07/03 08:05:20;;;;;;;8.05;4.57;;;23.70;59.80;;;;;;5031973;28;20029;-83
2023/07/03 08:07:46;;;;;;;7.28;4.00;;;23.90;58.40;;;;;;5031681;28;20083;-82
2023/07/03 08:10:12;;;;;;;6.50;4.20;;;24.20;58.60;;;;;;5031205;28;20029;-83
2023/07/03 08:12:38;;;;;;;6.88;4.13;;;24.20;57.70;;;;;;5030728;28;20074;-83
2023/07/03 08:15:05;;;;;;;5.90;4.47;;;24.20;57.20;;;;;;5030178;28;20112;-80
2023/07/03 08:17:31;;;;;;;4.93;3.97;;;23.80;55.90;;;;;;5030496;28;20482;-81
2023/07/03 08:19:56;;;;;;;6.55;3.88;;;23.40;56.10;;;;;;5030462;28;20413;-83
2023/07/03 08:22:23;;;;;;;8.05;4.15;;;23.10;56.90;;;;;;5037851;28;20021;-83
2023/07/03 08:24:49;;;;;;;8.02;4.65;;;23.40;57.90;;;;;;5050028;28;20056;-82
2023/07/03 08:27:14;;;;;;;8.13;4.65;;;23.40;58.40;;;;;;5050048;28;20029;-83
2023/07/03 08:29:40;;;;;;;6.22;4.15;;;23.00;56.20;;;;;;5050110;28;20504;-80
2023/07/03 08:32:09;;;;;;;7.47;5.03;;;22.70;56.10;;;;;;5050227;28;20017;-80
2023/07/03 08:34:35;;;;;;;7.45;4.20;;;22.80;57.70;;;;;;5051285;28;20051;-82
2023/07/03 08:37:01;;;;;;;5.57;4.25;;;22.60;57.50;;;;;;5051143;28;20036;-83
2023/07/03 08:39:26;;;;;;;5.43;4.15;;;22.80;58.70;;;;;;5051205;28;20039;-82
2023/07/03 08:42:08;;;;;;;7.63;3.72;;;23.00;58.80;;;;;;5050765;28;20045;-83
2023/07/03 08:44:33;;;;;;;7.65;4.47;;;23.40;57.80;;;;;;5079125;27;20027;-81
2023/07/03 08:47:03;;;;;;;7.85;4.32;;;23.50;56.70;;;;;;5134266;27;20026;-81
2023/07/03 08:49:30;;;;;;;6.68;4.20;;;23.80;54.70;;;;;;5133769;27;20019;-81
2023/07/03 08:51:59;;;;;;;7.05;4.32;;;23.40;54.80;;;;;;5133554;27;20031;-83
2023/07/03 08:54:30;;;;;;;8.80;4.18;;;23.40;54.90;;;;;;5134887;27;20061;-83
2023/07/03 08:56:57;;;;;;;7.15;5.00;;;23.60;56.30;;;;;;5133988;27;20026;-83
2023/07/03 08:59:23;;;;;;;8.70;5.93;;;23.50;54.60;;;;;;5133890;27;20023;-81
2023/07/03 09:02:23;;;;;;;12.73;6.75;;;23.70;54.80;;;;;;5133500;27;20519;-82
2023/07/03 09:04:52;;;;;;;8.40;6.45;;;24.10;54.10;;;;;;5134718;27;20480;-82
2023/07/03 09:07:36;;;;;;;15.13;7.00;;;24.00;52.00;;;;;;5133538;27;20019;-82
2023/07/03 09:10:07;;;;;;;13.68;7.28;;;23.80;53.00;;;;;;5133908;27;20479;-81
2023/07/03 09:12:49;;;;;;;10.07;7.20;;;24.10;53.80;;;;;;5134786;27;20031;-81
2023/07/03 09:15:43;;;;;;;11.15;7.53;;;24.30;51.80;;;;;;5133639;27;20276;-83
2023/07/03 09:18:14;;;;;;;12.35;7.93;;;24.10;51.50;;;;;;5133452;27;20023;-83
2023/07/03 09:20:41;;;;;;;14.53;7.50;;;23.90;51.10;;;;;;5133164;27;20119;-83
2023/07/03 09:23:08;;;;;;;13.95;8.13;;;23.80;50.20;;;;;;5133223;27;20015;-81
2023/07/03 09:25:49;;;;;;;15.18;8.68;;;23.50;50.20;;;;;;5133554;27;20480;-81
2023/07/03 09:28:15;;;;;;;11.75;7.88;;;23.10;49.50;;;;;;5133284;27;20031;-81
2023/07/03 09:30:41;;;;;;;14.90;8.43;;;22.80;50.00;;;;;;5134416;27;20077;-83
2023/07/03 09:33:07;;;;;;;12.63;8.52;;;22.70;51.00;;;;;;5134636;27;20023;-81
2023/07/03 09:35:40;;;;;;;16.75;8.65;;;22.70;52.60;;;;;;5134126;27;20065;-83
2023/07/03 09:38:17;;;;;;;14.30;8.82;;;22.50;52.80;;;;;;5133222;27;20528;-81
2023/07/03 09:40:45;;;;;;;15.18;8.75;;;22.70;53.10;;;;;;5134402;27;20147;-81
2023/07/03 09:43:20;;;;;;;14.82;8.75;;;23.20;52.30;;;;;;5134314;27;20041;-83
2023/07/03 09:45:47;;;;;;;13.75;8.27;;;23.50;50.70;;;;;;5133008;27;20071;-81
2023/07/03 09:48:25;;;;;;;16.88;8.35;;;23.90;50.80;;;;;;5132914;27;20547;-83
2023/07/03 09:50:52;;;;;;;16.08;8.80;;;24.00;50.90;;;;;;5132804;27;20023;-82
2023/07/03 09:53:21;;;;;;;14.52;8.60;;;24.10;49.80;;;;;;5134008;27;20137;-80
2023/07/03 09:55:55;;;;;;;12.32;7.88;;;23.90;48.70;;;;;;5134785;27;20110;-80
2023/07/03 09:58:24;;;;;;;16.08;8.48;;;24.10;50.10;;;;;;5134305;27;20028;-80
2023/07/03 10:00:58;;;;;;;16.88;7.93;;;24.10;48.40;;;;;;5110635;27;20025;-82
2023/07/03 10:03:26;;;;;;;14.25;8.07;;;24.00;49.50;;;;;;5049792;28;20390;-80
2023/07/03 10:05:53;;;;;;;19.45;7.97;;;23.80;48.30;;;;;;5049845;28;20083;-82
2023/07/03 10:08:21;;;;;;;12.80;7.57;;;23.50;49.00;;;;;;5048702;28;20041;-80
2023/07/03 10:10:48;;;;;;;14.68;8.95;;;23.30;50.60;;;;;;5050424;28;20082;-82
2023/07/03 10:13:29;;;;;;;12.07;7.47;;;23.10;50.20;;;;;;5048755;28;20077;-80
2023/07/03 10:15:55;;;;;;;14.10;8.05;;;22.80;50.70;;;;;;5048386;28;20051;-80
2023/07/03 10:18:29;;;;;;;16.08;9.52;;;23.10;51.70;;;;;;5048556;28;20029;-80
2023/07/03 10:20:56;;;;;;;15.75;9.48;;;23.40;52.60;;;;;;5048665;28;20428;-80
2023/07/03 10:23:25;;;;;;;14.57;8.70;;;23.70;51.50;;;;;;5048380;28;20017;-82
2023/07/03 10:26:05;;;;;;;14.23;8.05;;;23.90;50.70;;;;;;5049711;28;20098;-83
2023/07/03 10:28:39;;;;;;;18.38;8.65;;;24.10;50.60;;;;;;5049648;28;20037;-82
2023/07/03 10:31:11;;;;;;;14.45;9.35;;;24.40;51.00;;;;;;5048479;28;20443;-80
2023/07/03 10:33:46;;;;;;;13.43;8.45;;;24.60;50.20;;;;;;5050607;28;20049;-83
2023/07/03 10:36:18;;;;;;;14.75;8.30;;;24.70;48.40;;;;;;5051863;28;20025;-81
2023/07/03 10:39:08;;;;;;;15.70;8.95;;;24.60;48.50;;;;;;5053361;28;20024;-81
2023/07/03 10:41:44;;;;;;;12.05;8.00;;;24.50;49.90;;;;;;5053030;28;20060;-83
2023/07/03 10:44:19;;;;;;;15.52;9.93;;;24.40;48.70;;;;;;5052869;28;20040;-82
2023/07/03 10:46:54;;;;;;;14.55;9.07;;;24.40;48.90;;;;;;5037252;28;20045;-81
2023/07/03 10:49:35;;;;;;;15.65;9.10;;;24.30;48.60;;;;;;5032104;28;20057;-80
2023/07/03 10:52:07;;;;;;;17.98;9.38;;;24.50;48.80;;;;;;5032287;28;20030;-82
2023/07/03 10:54:40;;;;;;;15.10;8.48;;;24.80;49.00;;;;;;5032213;28;20060;-82
2023/07/03 10:57:11;;;;;;;13.73;8.48;;;24.80;47.50;;;;;;5031947;28;20033;-82
2023/07/03 10:59:42;;;;;;;12.55;8.57;;;24.60;46.40;;;;;;5031933;28;20491;-82
2023/07/03 11:02:27;;;;;;;14.50;9.43;;;24.70;47.40;;;;;;5033083;28;20025;-80
2023/07/03 11:05:10;;;;;;;14.05;8.93;;;25.00;46.10;;;;;;5033027;28;20109;-82
2023/07/03 11:07:50;;;;;;;16.98;8.50;;;25.40;45.60;;;;;;5031910;28;20045;-80
2023/07/03 11:10:41;;;;;;;14.80;9.38;;;25.50;45.90;;;;;;5033185;28;20497;-82
2023/07/03 11:13:41;;;;;;;12.82;8.95;;;25.80;47.40;;;;;;5033062;28;20017;-81
2023/07/03 11:16:15;;;;;;;15.38;9.27;;;25.90;45.40;;;;;;5031610;28;20443;-82
2023/07/03 11:18:55;;;;;;;17.63;10.20;;;25.90;45.90;;;;;;5031519;28;20616;-82
2023/07/03 11:21:36;;;;;;;17.92;10.20;;;25.90;44.30;;;;;;5028955;28;20029;-80
2023/07/03 11:24:24;;;;;;;13.32;9.07;;;25.50;43.20;;;;;;5030880;28;20138;-83
2023/07/03 11:27:05;;;;;;;17.50;9.88;;;25.70;46.30;;;;;;5032516;28;20078;-80
2023/07/03 11:29:31;;;;;;;14.20;9.43;;;26.00;46.50;;;;;;5032266;28;20029;-80
2023/07/03 11:31:57;;;;;;;16.05;9.52;;;25.90;44.30;;;;;;5030342;28;20022;-79
2023/07/03 11:34:26;;;;;;;15.63;9.75;;;25.80;43.10;;;;;;5048079;27;20072;-83
2023/07/03 11:36:57;;;;;;;12.57;8.45;;;25.70;44.40;;;;;;5050020;28;20032;-82
2023/07/03 11:39:29;;;;;;;15.43;9.00;;;25.70;44.10;;;;;;5050101;27;20028;-81
2023/07/03 11:42:01;;;;;;;;;;;25.70;44.60;;;;;;5037537;27;20124;-82
2023/07/03 11:44:42;;;;;;;15.07;8.77;;;25.70;44.90;;;;;;5048933;27;19913;-79
2023/07/03 11:47:27;;;;;;;15.63;9.98;;;25.70;44.70;;;;;;5049440;27;20041;-79
2023/07/03 11:50:03;;;;;;;13.63;9.10;;;25.80;45.00;;;;;;5049364;28;20021;-82
2023/07/03 11:52:32;;;;;;;21.50;10.82;;;25.90;45.60;;;;;;5036910;28;20034;-83
2023/07/03 11:55:05;;;;;;;19.73;10.73;;;25.60;44.60;;;;;;5039319;28;20092;-83
2023/07/03 11:57:37;;;;;;;16.08;9.27;;;25.50;45.20;;;;;;5062869;27;20382;-80
2023/07/03 12:00:15;;;;;;;16.27;9.13;;;25.60;46.00;;;;;;5034663;28;20497;-79
2023/07/03 12:02:50;;;;;;;13.35;9.18;;;25.60;46.00;;;;;;5037161;28;20029;-79
2023/07/03 12:05:43;;;;;;;14.27;8.18;;;25.70;44.30;;;;;;5039023;28;20105;-82
2023/07/03 12:08:18;;;;;;;17.52;8.55;;;25.80;44.70;;;;;;5050206;28;20037;-81
2023/07/03 12:10:49;;;;;;;16.90;8.18;;;25.90;43.20;;;;;;5051358;28;20025;-79
2023/07/03 12:13:47;;;;;;;15.68;8.85;;;26.20;44.30;;;;;;5049007;28;20027;-81
2023/07/03 12:16:16;;;;;;;15.35;8.35;;;26.20;43.40;;;;;;5038191;28;20043;-82
2023/07/03 12:18:42;;;;;;;16.48;8.93;;;26.30;45.20;;;;;;5047240;28;20049;-80
2023/07/03 12:21:08;;;;;;;12.48;7.65;;;26.00;44.40;;;;;;5050149;28;20577;-82
2023/07/03 12:23:42;;;;;;;14.55;8.20;;;25.90;43.50;;;;;;5043504;28;20109;-82
2023/07/03 12:26:15;;;;;;;13.48;8.48;;;26.00;45.10;;;;;;5030655;28;20029;-82
2023/07/03 12:28:42;;;;;;;15.70;8.80;;;26.10;45.30;;;;;;5030541;28;20128;-82
2023/07/03 12:31:27;;;;;;;14.77;7.93;;;25.80;43.10;;;;;;5030427;28;20078;-78
2023/07/03 12:33:53;;;;;;;14.00;8.20;;;25.60;43.40;;;;;;5030143;28;20090;-81
2023/07/03 12:36:25;;;;;;;12.95;7.20;;;25.50;44.40;;;;;;5031617;28;20026;-80
2023/07/03 12:38:51;;;;;;;21.25;8.43;;;25.50;46.20;;;;;;5030151;28;20086;-81
2023/07/03 12:41:32;;;;;;;13.70;7.45;;;25.40;45.30;;;;;;5031220;28;20046;-77
2023/07/03 12:44:02;;;;;;;14.48;8.30;;;25.60;46.10;;;;;;5031122;28;20022;-80
2023/07/03 12:46:34;;;;;;;15.45;8.57;;;25.40;46.10;;;;;;5028423;28;20053;-77
2023/07/03 12:49:14;;;;;;;13.10;7.47;;;25.30;46.50;;;;;;5031693;28;20034;-77
2023/07/03 12:51:53;;;;;;;21.13;8.38;;;25.50;46.80;;;;;;5030206;28;20164;-77